F/V Le Natif 2 — FKVW — position and weather

sailwx.info

Track history (hours):
 
Tides and Currents Weather Stations Pressure Air Temp Water Temp Dewpoint Dewpoint Depression Visibility Wind Speed Wind Dir Waves Ship Positions

F/V Le Natif 2

Last reported at 2014-Sep-24 03:33 UTC. Time now 2014-Sep-24 04:22 UTC.
Position N 46°42' W 001°57'.

Length 16 m.

Type: Fishing. MMSI: 228131600.

Date/timePositionNaut miles runAvg speedWind from/ knotsBaromVisibWave heightAir tempDewpointWater temp
2014-Sep-24 03:33N 46°42' W 001°57'0 0.0
2014-Sep-23 14:29N 46°42' W 001°57'0 0.1
2014-Sep-23 13:33N 46°42' W 001°56'2 2.2
2014-Sep-23 12:33N 46°40' W 001°58'9 9.1
2014-Sep-23 11:33N 46°31' W 002°01'8 8.3
2014-Sep-23 10:33N 46°23' W 002°04'6 4.2
2014-Sep-23 09:09N 46°17' W 002°05'1 1.5
2014-Sep-23 08:22N 46°16' W 002°06'3 2.8
2014-Sep-23 07:24N 46°19' W 002°05'7 7.9
2014-Sep-23 06:28N 46°25' W 002°11'4 4.9
2014-Sep-23 05:33N 46°29' W 002°07'8 8.1
2014-Sep-23 04:33N 46°36' W 002°02'7 6.9
2014-Sep-23 03:33N 46°42' W 001°57'0 0.0
2014-Sep-22 14:08N 46°42' W 001°57'0 0.0
2014-Sep-22 13:33N 46°42' W 001°57'0 0.1
2014-Sep-22 12:34N 46°42' W 001°56'1 1.1
2014-Sep-22 11:33N 46°41' W 001°58'8 8.1
2014-Sep-22 10:33N 46°34' W 002°03'7 6.5
2014-Sep-22 09:33N 46°29' W 002°09'2 2.3
2014-Sep-22 08:33N 46°28' W 002°12'1 1.0
2014-Sep-22 07:33N 46°28' W 002°11'3 2.5
2014-Sep-22 06:33N 46°29' W 002°07'0 0.2
2014-Sep-22 05:33N 46°29' W 002°08'7 7.4
2014-Sep-22 04:33N 46°35' W 002°02'8 7.7
2014-Sep-22 03:33N 46°42' W 001°57'0 0.0
2014-Sep-21 13:33N 46°42' W 001°56'0 0.0
2014-Sep-21 12:32N 46°42' W 001°56'4 4.3
2014-Sep-21 11:33N 46°38' W 001°59'8 8.3
2014-Sep-21 10:33N 46°30' W 002°04'6 6.0
2014-Sep-21 09:33N 46°25' W 002°08'0 0.3
2014-Sep-21 08:33N 46°25' W 002°09'0 0.4
2014-Sep-21 07:33N 46°25' W 002°09'1 1.0
2014-Sep-21 06:25N 46°25' W 002°07'6 6.6
2014-Sep-21 05:33N 46°30' W 002°03'8 8.5
2014-Sep-21 04:33N 46°38' W 001°59'4 3.9
2014-Sep-21 03:33N 46°42' W 001°56'  
2014-Sep-17 12:05N 46°42' W 001°57'0 0.0
2014-Sep-17 11:33N 46°42' W 001°57'0 0.0
2014-Sep-17 10:33N 46°42' W 001°57'4 3.9
2014-Sep-17 09:33N 46°38' W 001°60'9 8.5
2014-Sep-17 08:33N 46°30' W 002°03'3 2.9
2014-Sep-17 07:33N 46°27' W 002°04'0 0.2
2014-Sep-17 06:30N 46°27' W 002°04'2 2.0
2014-Sep-17 05:33N 46°29' W 002°02'8 7.5
2014-Sep-17 04:33N 46°36' W 001°60'6 6.0
2014-Sep-17 03:33N 46°42' W 001°57'0 0.0
2014-Sep-16 13:21N 46°42' W 001°57'0 0.1
2014-Sep-16 12:33N 46°42' W 001°57'0 0.0
2014-Sep-16 11:33N 46°42' W 001°57'8 7.9
2014-Sep-16 10:33N 46°34' W 002°00'8 8.5
2014-Sep-16 09:33N 46°26' W 002°04'2 1.7
2014-Sep-16 08:30N 46°24' W 002°03'2 1.6
2014-Sep-16 07:33N 46°23' W 002°03'7 4.9
2014-Sep-16 06:14N 46°27' W 002°10'5 7.5
2014-Sep-16 05:33N 46°32' W 002°11'7 7.5
2014-Sep-16 04:33N 46°37' W 002°03'6 6.4
2014-Sep-16 03:33N 46°42' W 001°57'0 0.0
2014-Sep-15 14:29N 46°42' W 001°57'0 0.1
2014-Sep-15 13:33N 46°42' W 001°57'0 0.0
2014-Sep-15 12:34N 46°42' W 001°57'0 0.3
2014-Sep-15 11:34N 46°42' W 001°57'8 8.2
2014-Sep-15 10:33N 46°34' W 002°01'8 8.2
2014-Sep-15 09:33N 46°26' W 002°04'2 1.6
2014-Sep-15 08:33N 46°25' W 002°06'2 2.4
2014-Sep-15 07:32N 46°26' W 002°09'4 3.6
2014-Sep-15 06:33N 46°29' W 002°11'3 3.2
2014-Sep-15 05:32N 46°32' W 002°11'8 7.7
2014-Sep-15 04:33N 46°38' W 002°03'6 6.0
2014-Sep-15 03:33N 46°42' W 001°57'0 0.0
2014-Sep-14 11:34N 46°42' W 001°57'0 0.1
2014-Sep-14 10:33N 46°42' W 001°56'0 0.0
2014-Sep-14 09:33N 46°42' W 001°56'8 7.7
2014-Sep-14 08:33N 46°37' W 002°05'8 7.7
2014-Sep-14 07:30N 46°31' W 002°14'1 0.8
2014-Sep-14 06:26N 46°32' W 002°13'1 1.5
2014-Sep-14 05:31N 46°32' W 002°11'8 8.0
2014-Sep-14 04:33N 46°38' W 002°03'  
Track history (hours):
 
Tides and Currents Weather Stations Pressure Air Temp Water Temp Dewpoint Dewpoint Depression Visibility Wind Speed Wind Dir Waves Ship Positions

F/V Le Natif 2

Last reported at 2014-Sep-24 03:33 UTC. Time now 2014-Sep-24 04:22 UTC.
Position N 46°42' W 001°57'.

Length 16 m.

Type: Fishing. MMSI: 228131600.

Date/timePositionNaut miles runAvg speedWind from/ knotsBaromVisibWave heightAir tempDewpointWater temp
2014-Sep-24 03:33N 46°42' W 001°57'0 0.0
2014-Sep-23 14:29N 46°42' W 001°57'0 0.1
2014-Sep-23 13:33N 46°42' W 001°56'2 2.2
2014-Sep-23 12:33N 46°40' W 001°58'9 9.1
2014-Sep-23 11:33N 46°31' W 002°01'8 8.3
2014-Sep-23 10:33N 46°23' W 002°04'6 4.2
2014-Sep-23 09:09N 46°17' W 002°05'1 1.5
2014-Sep-23 08:22N 46°16' W 002°06'3 2.8
2014-Sep-23 07:24N 46°19' W 002°05'7 7.9
2014-Sep-23 06:28N 46°25' W 002°11'4 4.9
2014-Sep-23 05:33N 46°29' W 002°07'8 8.1
2014-Sep-23 04:33N 46°36' W 002°02'7 6.9
2014-Sep-23 03:33N 46°42' W 001°57'0 0.0
2014-Sep-22 14:08N 46°42' W 001°57'0 0.0
2014-Sep-22 13:33N 46°42' W 001°57'0 0.1
2014-Sep-22 12:34N 46°42' W 001°56'1 1.1
2014-Sep-22 11:33N 46°41' W 001°58'8 8.1
2014-Sep-22 10:33N 46°34' W 002°03'7 6.5
2014-Sep-22 09:33N 46°29' W 002°09'2 2.3
2014-Sep-22 08:33N 46°28' W 002°12'1 1.0
2014-Sep-22 07:33N 46°28' W 002°11'3 2.5
2014-Sep-22 06:33N 46°29' W 002°07'0 0.2
2014-Sep-22 05:33N 46°29' W 002°08'7 7.4
2014-Sep-22 04:33N 46°35' W 002°02'8 7.7
2014-Sep-22 03:33N 46°42' W 001°57'0 0.0
2014-Sep-21 13:33N 46°42' W 001°56'0 0.0
2014-Sep-21 12:32N 46°42' W 001°56'4 4.3
2014-Sep-21 11:33N 46°38' W 001°59'8 8.3
2014-Sep-21 10:33N 46°30' W 002°04'6 6.0
2014-Sep-21 09:33N 46°25' W 002°08'0 0.3
2014-Sep-21 08:33N 46°25' W 002°09'0 0.4
2014-Sep-21 07:33N 46°25' W 002°09'1 1.0
2014-Sep-21 06:25N 46°25' W 002°07'6 6.6
2014-Sep-21 05:33N 46°30' W 002°03'8 8.5
2014-Sep-21 04:33N 46°38' W 001°59'4 3.9
2014-Sep-21 03:33N 46°42' W 001°56'  
2014-Sep-17 12:05N 46°42' W 001°57'0 0.0
2014-Sep-17 11:33N 46°42' W 001°57'0 0.0
2014-Sep-17 10:33N 46°42' W 001°57'4 3.9
2014-Sep-17 09:33N 46°38' W 001°60'9 8.5
2014-Sep-17 08:33N 46°30' W 002°03'3 2.9
2014-Sep-17 07:33N 46°27' W 002°04'0 0.2
2014-Sep-17 06:30N 46°27' W 002°04'2 2.0
2014-Sep-17 05:33N 46°29' W 002°02'8 7.5
2014-Sep-17 04:33N 46°36' W 001°60'6 6.0
2014-Sep-17 03:33N 46°42' W 001°57'0 0.0
2014-Sep-16 13:21N 46°42' W 001°57'0 0.1
2014-Sep-16 12:33N 46°42' W 001°57'0 0.0
2014-Sep-16 11:33N 46°42' W 001°57'8 7.9
2014-Sep-16 10:33N 46°34' W 002°00'8 8.5
2014-Sep-16 09:33N 46°26' W 002°04'2 1.7
2014-Sep-16 08:30N 46°24' W 002°03'2 1.6
2014-Sep-16 07:33N 46°23' W 002°03'7 4.9
2014-Sep-16 06:14N 46°27' W 002°10'5 7.5
2014-Sep-16 05:33N 46°32' W 002°11'7 7.5
2014-Sep-16 04:33N 46°37' W 002°03'6 6.4
2014-Sep-16 03:33N 46°42' W 001°57'0 0.0
2014-Sep-15 14:29N 46°42' W 001°57'0 0.1
2014-Sep-15 13:33N 46°42' W 001°57'0 0.0
2014-Sep-15 12:34N 46°42' W 001°57'0 0.3
2014-Sep-15 11:34N 46°42' W 001°57'8 8.2
2014-Sep-15 10:33N 46°34' W 002°01'8 8.2
2014-Sep-15 09:33N 46°26' W 002°04'2 1.6
2014-Sep-15 08:33N 46°25' W 002°06'2 2.4
2014-Sep-15 07:32N 46°26' W 002°09'4 3.6
2014-Sep-15 06:33N 46°29' W 002°11'3 3.2
2014-Sep-15 05:32N 46°32' W 002°11'8 7.7
2014-Sep-15 04:33N 46°38' W 002°03'6 6.0
2014-Sep-15 03:33N 46°42' W 001°57'0 0.0
2014-Sep-14 11:34N 46°42' W 001°57'0 0.1
2014-Sep-14 10:33N 46°42' W 001°56'0 0.0
2014-Sep-14 09:33N 46°42' W 001°56'8 7.7
2014-Sep-14 08:33N 46°37' W 002°05'8 7.7
2014-Sep-14 07:30N 46°31' W 002°14'1 0.8
2014-Sep-14 06:26N 46°32' W 002°13'1 1.5
2014-Sep-14 05:31N 46°32' W 002°11'8 8.0
2014-Sep-14 04:33N 46°38' W 002°03'  

Dump ship's entire track history